Time;durP1;ratioP1;P1;durP2;ratioP2;P2;SDS_P1;SDS_P2;PMS_P1;PMS_P2;Temp;Humidity;BMP_temperature;BMP_pressure;BME280_temperature;BME280_humidity;BME280_pressure;Samples;Min_cycle;Max_cycle;Signal;HPM_P1;HPM_P2
2022/01/08 00:01:43;;;;;;;45.72;28.50;;;0.70;99.90;;;;;;5013857;28;20575;-76
2022/01/08 00:04:12;;;;;;;45.92;28.67;;;0.70;99.90;;;;;;5014262;28;20117;-74
2022/01/08 00:06:38;;;;;;;44.00;29.08;;;0.70;99.90;;;;;;5013533;28;20114;-74
2022/01/08 00:09:04;;;;;;;42.30;27.23;;;0.70;99.90;;;;;;5013897;28;20125;-74
2022/01/08 00:11:30;;;;;;;46.30;27.60;;;0.70;99.90;;;;;;5013250;28;20112;-72
2022/01/08 00:13:56;;;;;;;43.60;27.67;;;0.80;99.90;;;;;;5013862;28;20105;-73
2022/01/08 00:16:21;;;;;;;45.50;31.08;;;0.90;99.90;;;;;;5013355;28;20041;-73
2022/01/08 00:18:47;;;;;;;43.40;27.02;;;0.90;99.90;;;;;;5013777;28;20035;-73
2022/01/08 00:21:13;;;;;;;42.75;25.95;;;0.90;99.90;;;;;;5014057;28;20072;-74
2022/01/08 00:23:39;;;;;;;52.05;27.60;;;0.90;99.90;;;;;;5013568;28;20026;-74
2022/01/08 00:26:06;;;;;;;37.35;24.38;;;0.80;99.90;;;;;;5013868;28;20069;-72
2022/01/08 00:28:32;;;;;;;41.95;27.10;;;0.90;99.90;;;;;;5013519;28;20447;-72
2022/01/08 00:30:58;;;;;;;46.08;27.55;;;1.00;99.90;;;;;;5013282;28;20061;-73
2022/01/08 00:33:24;;;;;;;54.45;29.45;;;1.10;99.90;;;;;;5013659;28;20452;-72
2022/01/08 00:35:49;;;;;;;45.88;28.63;;;1.20;99.90;;;;;;5013696;28;20105;-73
2022/01/08 00:38:15;;;;;;;54.15;33.95;;;1.20;99.90;;;;;;5013340;28;20025;-73
2022/01/08 00:40:41;;;;;;;55.15;30.77;;;1.30;99.90;;;;;;5013488;28;20113;-72
2022/01/08 00:43:07;;;;;;;43.63;27.95;;;1.20;99.90;;;;;;5013481;28;20029;-72
2022/01/08 00:45:33;;;;;;;41.03;23.92;;;1.20;99.90;;;;;;5013068;28;20033;-73
2022/01/08 00:47:59;;;;;;;48.28;26.60;;;1.20;99.90;;;;;;4995717;28;20045;-73
2022/01/08 00:50:26;;;;;;;46.25;28.13;;;1.10;99.90;;;;;;5020589;28;20022;-74
2022/01/08 00:52:51;;;;;;;43.25;27.73;;;1.20;99.90;;;;;;5013462;28;20392;-72
2022/01/08 00:55:17;;;;;;;45.28;31.13;;;1.20;99.90;;;;;;5013735;28;20021;-72
2022/01/08 00:57:43;;;;;;;44.53;30.20;;;1.20;99.90;;;;;;5013093;28;20049;-72
2022/01/08 01:00:12;;;;;;;42.83;28.10;;;1.30;99.90;;;;;;5013502;28;20404;-73
2022/01/08 01:02:39;;;;;;;38.05;23.65;;;1.30;99.90;;;;;;5013391;28;20029;-73
2022/01/08 01:05:06;;;;;;;36.83;23.98;;;1.40;99.90;;;;;;4995311;28;20396;-72
2022/01/08 01:07:32;;;;;;;36.72;23.10;;;1.40;99.90;;;;;;5013444;28;20361;-72
2022/01/08 01:09:58;;;;;;;36.15;24.42;;;1.40;99.90;;;;;;5012917;28;20056;-72
2022/01/08 01:12:24;;;;;;;41.22;24.95;;;1.40;99.90;;;;;;5012800;28;20133;-73
2022/01/08 01:14:50;;;;;;;33.25;23.80;;;1.40;99.90;;;;;;5012663;28;20104;-73
2022/01/08 01:17:16;;;;;;;43.38;24.77;;;1.40;99.90;;;;;;5012438;28;20049;-74
2022/01/08 01:19:43;;;;;;;42.90;25.27;;;1.30;99.90;;;;;;5013136;28;20069;-73
2022/01/08 01:22:12;;;;;;;42.15;26.83;;;1.40;99.90;;;;;;5017046;28;20483;-74
2022/01/08 01:24:39;;;;;;;47.55;26.98;;;1.50;99.90;;;;;;5013097;28;20037;-72
2022/01/08 01:48:20;;;;;;;47.53;28.48;;;1.90;99.90;;;;;;5012754;28;20065;-73
2022/01/08 01:50:47;;;;;;;45.00;26.88;;;1.90;99.90;;;;;;5012561;28;20076;-75
2022/01/08 01:53:13;;;;;;;44.05;25.80;;;1.90;99.90;;;;;;5012349;28;20065;-76
2022/01/08 01:55:43;;;;;;;42.63;25.02;;;2.00;99.90;;;;;;5012659;28;20053;-75
2022/01/08 01:58:10;;;;;;;44.53;26.63;;;2.00;99.90;;;;;;5011384;28;20545;-75
2022/01/08 02:00:36;;;;;;;41.15;26.92;;;2.00;99.90;;;;;;5012237;28;20030;-74
2022/01/08 02:03:02;;;;;;;48.47;30.30;;;2.00;99.90;;;;;;5005509;28;20480;-74
2022/01/08 02:05:29;;;;;;;41.42;26.90;;;2.00;99.90;;;;;;5012256;28;20112;-75
2022/01/08 02:07:55;;;;;;;47.95;29.92;;;2.00;99.90;;;;;;5012034;28;20076;-72
2022/01/08 02:10:24;;;;;;;50.83;30.88;;;2.00;99.90;;;;;;5019630;28;20022;-76
2022/01/08 02:12:50;;;;;;;49.20;28.23;;;2.10;99.90;;;;;;5012349;28;20054;-77
2022/01/08 02:15:16;;;;;;;41.92;26.15;;;2.10;99.90;;;;;;5021903;28;20029;-77
2022/01/08 02:17:42;;;;;;;43.05;24.17;;;2.00;99.90;;;;;;5012171;28;20036;-75
2022/01/08 02:20:09;;;;;;;38.08;23.95;;;2.00;99.90;;;;;;5012378;28;20109;-72
2022/01/08 02:22:36;;;;;;;37.72;22.52;;;1.90;99.90;;;;;;5012212;28;20122;-72
2022/01/08 02:25:02;;;;;;;35.05;21.50;;;1.80;99.90;;;;;;5012334;28;20105;-72
2022/01/08 02:27:29;;;;;;;33.72;21.70;;;1.80;99.90;;;;;;5011845;28;20486;-72
2022/01/08 02:29:55;;;;;;;43.47;21.58;;;1.70;99.90;;;;;;5011935;28;20095;-73
2022/01/08 02:32:29;;;;;;;33.85;20.45;;;1.70;99.90;;;;;;5011959;28;20061;-72
2022/01/08 02:34:55;;;;;;;31.65;20.33;;;1.70;99.90;;;;;;5011819;28;20097;-72
2022/01/08 02:37:29;;;;;;;32.30;21.85;;;1.70;99.90;;;;;;5006242;28;20029;-74
2022/01/08 02:39:57;;;;;;;35.50;20.60;;;1.60;99.90;;;;;;4991402;28;20031;-74
2022/01/08 02:42:26;;;;;;;31.10;19.95;;;1.80;99.90;;;;;;5011995;28;20057;-73
2022/01/08 02:44:52;;;;;;;33.70;20.17;;;1.80;99.90;;;;;;5011779;28;20470;-74
2022/01/08 02:47:19;;;;;;;29.45;18.90;;;1.90;99.90;;;;;;5011586;28;20101;-73
2022/01/08 02:49:51;;;;;;;30.15;18.40;;;1.90;99.90;;;;;;5011552;28;20056;-74
2022/01/08 02:52:18;;;;;;;33.42;20.25;;;1.90;99.90;;;;;;5011383;28;20033;-72
2022/01/08 02:54:44;;;;;;;36.33;20.60;;;2.00;99.90;;;;;;5012816;28;20514;-74
2022/01/08 02:57:10;;;;;;;30.02;18.70;;;1.90;99.90;;;;;;5011440;28;20049;-74
2022/01/08 02:59:35;;;;;;;32.33;19.60;;;2.00;99.90;;;;;;5011597;28;20124;-72
2022/01/08 03:02:02;;;;;;;28.83;18.48;;;2.00;99.90;;;;;;5011654;28;20101;-73
2022/01/08 03:04:27;;;;;;;30.42;18.17;;;2.10;99.90;;;;;;5011408;28;20025;-74
2022/01/08 03:06:53;;;;;;;29.95;18.48;;;2.20;99.90;;;;;;5009745;28;20092;-75
2022/01/08 03:09:19;;;;;;;32.47;18.70;;;2.30;99.90;;;;;;5004834;28;20045;-75
2022/01/08 03:11:45;;;;;;;30.45;19.45;;;2.30;99.90;;;;;;5011435;28;20030;-73
2022/01/08 03:14:11;;;;;;;27.55;17.50;;;2.40;99.90;;;;;;5012456;28;20030;-73
2022/01/08 03:16:38;;;;;;;28.98;17.83;;;2.40;99.90;;;;;;5011318;28;20491;-73
2022/01/08 03:19:10;;;;;;;38.95;24.52;;;2.50;99.90;;;;;;5010948;28;20061;-74
2022/01/08 03:21:46;;;;;;;50.20;31.75;;;2.40;99.90;;;;;;5011272;28;20025;-73
2022/01/08 03:24:16;;;;;;;51.65;33.75;;;2.20;99.90;;;;;;5011234;28;20022;-75
2022/01/08 03:26:43;;;;;;;53.75;33.83;;;2.00;99.90;;;;;;5013450;28;20492;-75
2022/01/08 03:29:09;;;;;;;49.70;32.25;;;2.10;99.90;;;;;;4996812;28;20086;-73
2022/01/08 03:31:36;;;;;;;64.10;35.58;;;2.00;99.90;;;;;;4997368;28;20554;-75
2022/01/08 03:34:03;;;;;;;52.60;31.67;;;2.00;99.90;;;;;;5010838;28;20080;-76
2022/01/08 03:36:28;;;;;;;48.33;29.48;;;2.00;99.90;;;;;;5010923;28;20026;-74
2022/01/08 03:38:54;;;;;;;43.70;28.65;;;2.00;99.90;;;;;;5011122;28;20022;-73
2022/01/08 03:41:21;;;;;;;43.03;28.45;;;2.00;99.90;;;;;;5010831;28;20129;-71
2022/01/08 03:43:48;;;;;;;42.47;27.45;;;1.90;99.90;;;;;;5010960;28;20070;-74
2022/01/08 03:46:13;;;;;;;43.83;26.63;;;2.00;99.90;;;;;;5010982;28;20061;-74
2022/01/08 03:51:05;;;;;;;40.58;26.65;;;1.90;99.90;;;;;;5011123;28;20041;-74
2022/01/08 03:53:31;;;;;;;41.17;26.67;;;2.00;99.90;;;;;;5011017;28;20461;-74
2022/01/08 03:55:57;;;;;;;41.60;28.20;;;2.00;99.90;;;;;;5011268;28;20044;-72
2022/01/08 03:58:23;;;;;;;39.20;27.75;;;2.10;99.90;;;;;;5010811;28;20042;-74
2022/01/08 04:00:49;;;;;;;44.22;28.35;;;2.10;99.90;;;;;;5010363;28;20107;-75
2022/01/08 04:03:18;;;;;;;49.17;31.60;;;2.10;99.90;;;;;;4993461;28;20018;-74
2022/01/08 04:05:48;;;;;;;50.85;32.45;;;2.20;99.90;;;;;;4997387;28;20033;-74
2022/01/08 04:08:15;;;;;;;53.22;32.47;;;2.20;99.90;;;;;;5010201;28;20034;-75
2022/01/08 04:10:41;;;;;;;47.72;30.42;;;2.20;99.90;;;;;;5010936;28;20049;-75
2022/01/08 04:13:14;;;;;;;49.60;33.53;;;2.10;99.90;;;;;;5015301;28;20022;-73
2022/01/08 04:15:44;;;;;;;49.95;32.30;;;2.10;99.90;;;;;;5010677;28;20026;-75
2022/01/08 04:18:10;;;;;;;53.58;35.58;;;2.00;99.90;;;;;;5010580;28;20022;-75
2022/01/08 04:21:00;;;;;;;52.55;33.55;;;1.90;99.90;;;;;;5010722;28;20116;-74
2022/01/08 04:23:26;;;;;;;53.45;35.60;;;1.90;99.90;;;;;;5014185;28;20077;-76
2022/01/08 04:25:52;;;;;;;57.58;38.20;;;1.90;99.90;;;;;;4996888;28;20025;-74
2022/01/08 04:28:19;;;;;;;56.90;38.28;;;1.90;99.90;;;;;;5014068;28;20034;-74
2022/01/08 04:30:45;;;;;;;64.55;42.00;;;2.00;99.90;;;;;;5013985;28;20361;-74
2022/01/08 04:33:11;;;;;;;65.88;45.58;;;2.00;99.90;;;;;;5014186;28;20130;-74
2022/01/08 04:35:37;;;;;;;62.47;41.47;;;2.00;99.90;;;;;;5014129;28;20528;-75
2022/01/08 04:38:03;;;;;;;60.90;42.38;;;2.10;99.90;;;;;;5006159;28;20561;-73
2022/01/08 04:40:30;;;;;;;64.05;42.45;;;2.10;99.90;;;;;;5013930;28;20080;-72
2022/01/08 04:42:56;;;;;;;64.25;43.67;;;2.10;99.90;;;;;;5014008;28;20033;-73
2022/01/08 04:45:24;;;;;;;65.80;42.50;;;2.10;99.90;;;;;;5013496;28;20071;-72
2022/01/08 04:47:49;;;;;;;74.65;48.17;;;2.20;99.90;;;;;;5013462;28;20403;-73
2022/01/08 04:50:15;;;;;;;68.45;45.45;;;2.20;99.90;;;;;;5013755;28;20018;-73
2022/01/08 04:52:42;;;;;;;68.43;46.05;;;2.30;99.90;;;;;;5013498;28;20061;-73
2022/01/08 04:55:09;;;;;;;65.25;43.05;;;2.30;99.90;;;;;;4996023;28;20076;-73
2022/01/08 04:57:34;;;;;;;65.47;43.78;;;2.30;99.90;;;;;;5013309;28;20084;-74
2022/01/08 05:00:01;;;;;;;64.30;44.55;;;2.20;99.90;;;;;;4995754;28;20061;-72
2022/01/08 05:02:26;;;;;;;61.80;44.55;;;2.20;99.90;;;;;;5012927;28;20116;-72
2022/01/08 05:04:52;;;;;;;66.63;44.35;;;2.20;99.90;;;;;;5013424;28;20421;-73
2022/01/08 05:07:18;;;;;;;73.40;46.58;;;2.20;99.90;;;;;;5008002;28;20038;-73
2022/01/08 05:09:44;;;;;;;69.35;44.95;;;2.20;99.90;;;;;;5009997;28;20037;-73
2022/01/08 05:12:09;;;;;;;67.47;46.03;;;2.30;99.90;;;;;;5012933;28;20018;-72
2022/01/08 05:14:35;;;;;;;74.65;49.63;;;2.30;99.90;;;;;;5013094;28;20094;-73
2022/01/08 05:17:02;;;;;;;75.40;49.83;;;2.20;99.90;;;;;;5013339;28;20065;-74
2022/01/08 05:19:40;;;;;;;66.95;46.25;;;2.10;99.90;;;;;;5013264;28;20112;-72
2022/01/08 05:22:09;;;;;;;68.13;47.25;;;2.20;99.90;;;;;;4995622;28;20037;-74
2022/01/08 05:24:35;;;;;;;66.82;44.67;;;2.20;99.90;;;;;;5013372;28;20022;-74
2022/01/08 05:27:03;;;;;;;70.35;46.65;;;2.20;99.90;;;;;;5012799;28;20030;-73
2022/01/08 05:29:30;;;;;;;67.55;45.67;;;2.10;99.90;;;;;;5013021;28;20459;-73
2022/01/08 05:31:56;;;;;;;65.40;44.30;;;2.20;99.90;;;;;;5012764;28;20036;-73
2022/01/08 05:34:22;;;;;;;66.18;43.55;;;2.20;99.90;;;;;;5011908;28;20022;-71
2022/01/08 05:36:48;;;;;;;65.00;43.45;;;2.10;99.90;;;;;;5011755;28;20030;-72
2022/01/08 05:39:13;;;;;;;74.13;52.70;;;2.00;99.90;;;;;;5005753;28;20544;-72
2022/01/08 05:41:39;;;;;;;81.30;53.90;;;2.10;99.90;;;;;;5013023;28;20112;-73
2022/01/08 05:44:05;;;;;;;82.32;52.90;;;2.00;99.90;;;;;;5012801;28;20022;-73
2022/01/08 05:46:31;;;;;;;69.25;46.78;;;2.00;99.90;;;;;;5012813;28;20456;-73
2022/01/08 05:49:01;;;;;;;73.22;47.28;;;1.90;99.90;;;;;;5012754;28;20169;-71
2022/01/08 05:51:27;;;;;;;64.00;44.80;;;1.90;99.90;;;;;;4995284;28;20075;-73
2022/01/08 05:53:54;;;;;;;67.95;45.20;;;1.80;99.90;;;;;;5018359;28;20523;-74
2022/01/08 05:56:21;;;;;;;60.78;41.42;;;1.80;99.90;;;;;;5014929;28;20111;-74
2022/01/08 05:58:47;;;;;;;59.22;42.20;;;1.80;99.90;;;;;;5014668;28;20054;-72
2022/01/08 06:01:13;;;;;;;66.82;42.78;;;1.90;99.90;;;;;;5012580;28;20113;-72
2022/01/08 06:03:39;;;;;;;62.38;41.78;;;1.90;99.90;;;;;;5012426;28;20022;-74
2022/01/08 06:06:05;;;;;;;59.92;41.45;;;1.90;99.90;;;;;;4994874;28;20022;-73
2022/01/08 06:08:31;;;;;;;61.40;41.03;;;1.90;99.90;;;;;;5004003;28;20033;-73
2022/01/08 06:10:57;;;;;;;56.90;39.45;;;1.90;99.90;;;;;;5012402;28;20034;-72
2022/01/08 06:13:24;;;;;;;57.40;39.10;;;2.00;99.90;;;;;;5022884;28;20068;-74
2022/01/08 06:15:50;;;;;;;51.15;35.85;;;2.00;99.90;;;;;;4995623;28;20488;-73
2022/01/08 06:18:16;;;;;;;54.75;37.28;;;2.00;99.90;;;;;;5012165;28;20105;-73
2022/01/08 06:20:43;;;;;;;55.72;38.08;;;2.00;99.90;;;;;;5012278;28;20030;-75
2022/01/08 06:23:09;;;;;;;49.83;35.53;;;2.00;99.90;;;;;;5012165;28;20032;-74
2022/01/08 06:25:35;;;;;;;53.53;37.15;;;2.00;99.90;;;;;;4978415;28;20487;-74
2022/01/08 06:28:01;;;;;;;51.72;37.15;;;2.00;99.90;;;;;;5010258;28;20029;-75
2022/01/08 06:30:27;;;;;;;55.80;42.03;;;2.10;99.90;;;;;;5009466;28;20030;-72
2022/01/08 06:32:53;;;;;;;54.92;38.92;;;2.10;99.90;;;;;;5010410;28;20033;-73
2022/01/08 06:35:18;;;;;;;55.40;39.10;;;2.00;99.90;;;;;;5010792;28;20492;-74
2022/01/08 06:37:44;;;;;;;59.30;39.58;;;2.10;99.90;;;;;;5002652;28;20038;-75
2022/01/08 06:40:11;;;;;;;54.30;37.28;;;2.00;99.90;;;;;;5011057;28;20168;-73
2022/01/08 06:42:37;;;;;;;58.88;41.80;;;2.00;99.90;;;;;;5010768;28;20038;-74
2022/01/08 06:45:03;;;;;;;60.50;42.20;;;2.00;99.90;;;;;;5010406;28;20157;-71
2022/01/08 06:47:28;;;;;;;62.88;44.72;;;2.00;99.90;;;;;;5000789;28;20030;-71
2022/01/08 06:49:55;;;;;;;59.20;41.92;;;2.00;99.90;;;;;;5009348;28;20037;-71
2022/01/08 06:52:21;;;;;;;72.25;53.58;;;2.00;99.90;;;;;;4992727;28;20029;-72
2022/01/08 06:54:49;;;;;;;71.03;49.83;;;2.00;99.90;;;;;;5010646;28;20396;-73
2022/01/08 06:57:16;;;;;;;66.68;46.78;;;1.90;99.90;;;;;;5022428;28;20508;-76
2022/01/08 06:59:47;;;;;;;70.32;50.50;;;2.00;99.90;;;;;;5003141;28;20030;-72
2022/01/08 07:02:14;;;;;;;72.93;52.45;;;2.00;99.90;;;;;;5010322;28;20029;-73
2022/01/08 07:04:40;;;;;;;78.78;50.58;;;1.90;99.90;;;;;;5010595;28;20031;-73
2022/01/08 07:07:06;;;;;;;69.30;47.55;;;1.80;99.90;;;;;;5010425;28;20041;-73
2022/01/08 07:09:32;;;;;;;72.38;47.42;;;1.80;99.90;;;;;;4992837;28;20069;-73
2022/01/08 07:11:58;;;;;;;83.55;43.47;;;1.80;99.90;;;;;;5003462;28;20019;-71
2022/01/08 07:14:24;;;;;;;66.88;43.78;;;1.70;99.90;;;;;;5006751;28;20479;-72
2022/01/08 07:16:50;;;;;;;61.83;43.92;;;1.80;99.90;;;;;;4992390;28;20030;-72
2022/01/08 07:19:18;;;;;;;61.47;42.40;;;1.70;99.90;;;;;;5009001;28;20021;-72
2022/01/08 07:21:44;;;;;;;55.08;39.35;;;1.70;99.90;;;;;;5009024;28;20034;-71
2022/01/08 07:24:10;;;;;;;65.32;42.75;;;1.70;99.90;;;;;;5009744;28;20492;-71
2022/01/08 07:26:35;;;;;;;58.03;39.85;;;1.80;99.90;;;;;;5009072;28;20026;-70
2022/01/08 07:29:01;;;;;;;60.03;41.95;;;1.80;99.90;;;;;;5008094;28;20072;-70
2022/01/08 07:31:27;;;;;;;59.95;42.58;;;1.70;99.90;;;;;;5009174;28;20064;-72
2022/01/08 07:33:54;;;;;;;60.95;42.28;;;1.70;99.90;;;;;;4991946;28;20018;-72
2022/01/08 07:36:20;;;;;;;66.28;43.95;;;1.70;99.90;;;;;;5008162;28;20033;-71
2022/01/08 07:38:49;;;;;;;57.50;40.78;;;1.80;99.90;;;;;;5008886;28;20245;-71
2022/01/08 07:41:15;;;;;;;64.55;43.65;;;1.80;99.90;;;;;;5009568;28;20034;-72
2022/01/08 07:43:41;;;;;;;63.70;42.28;;;1.80;99.90;;;;;;5009482;28;20025;-71
2022/01/08 07:46:07;;;;;;;62.40;43.35;;;1.80;99.90;;;;;;5015855;28;20139;-73
2022/01/08 07:48:33;;;;;;;62.10;43.58;;;1.80;99.90;;;;;;5008122;28;20037;-72
2022/01/08 07:50:59;;;;;;;60.92;42.92;;;1.70;99.90;;;;;;5010451;28;20030;-72
2022/01/08 07:53:26;;;;;;;64.75;43.92;;;1.80;99.90;;;;;;5009377;28;20111;-72
2022/01/08 07:55:52;;;;;;;63.40;43.00;;;1.80;99.90;;;;;;4993172;28;20113;-71
2022/01/08 07:58:20;;;;;;;56.13;40.25;;;1.80;99.90;;;;;;5013646;28;20130;-72
2022/01/08 08:00:50;;;;;;;56.03;38.90;;;1.70;99.90;;;;;;5013826;28;20034;-71
2022/01/08 08:03:20;;;;;;;58.30;40.20;;;1.90;99.90;;;;;;5013756;28;20224;-70
2022/01/08 08:05:46;;;;;;;55.85;37.20;;;1.90;99.90;;;;;;5012855;28;20094;-70
2022/01/08 08:08:18;;;;;;;59.45;40.97;;;1.90;99.90;;;;;;4999967;28;20046;-71
2022/01/08 08:10:48;;;;;;;60.83;40.53;;;2.00;99.90;;;;;;4990794;28;20122;-69
2022/01/08 08:13:21;;;;;;;56.40;40.10;;;2.00;99.90;;;;;;5012810;28;20515;-71
2022/01/08 08:15:48;;;;;;;62.90;40.47;;;2.10;99.90;;;;;;4995294;28;20022;-72
2022/01/08 08:18:14;;;;;;;64.18;41.08;;;2.10;99.90;;;;;;5013084;28;20022;-72
2022/01/08 08:20:41;;;;;;;59.88;42.17;;;2.20;99.90;;;;;;5012706;28;20117;-71
2022/01/08 08:23:08;;;;;;;67.93;41.50;;;2.10;99.90;;;;;;5012423;28;20101;-71
2022/01/08 08:25:34;;;;;;;61.03;38.90;;;2.20;99.90;;;;;;5013450;28;20034;-71
2022/01/08 08:28:00;;;;;;;60.33;39.65;;;2.10;99.90;;;;;;5012879;28;20030;-72
2022/01/08 08:30:26;;;;;;;59.85;38.30;;;2.20;99.90;;;;;;5013052;28;20069;-74
2022/01/08 08:32:53;;;;;;;59.28;38.15;;;2.10;99.90;;;;;;5013283;28;20029;-72
2022/01/08 08:35:19;;;;;;;60.55;40.50;;;2.20;99.90;;;;;;5013260;28;20104;-73
2022/01/08 08:37:45;;;;;;;61.88;42.97;;;2.10;99.90;;;;;;5013098;28;20052;-70
2022/01/08 08:40:13;;;;;;;62.97;42.95;;;2.10;99.90;;;;;;5013278;28;20041;-75
2022/01/08 08:42:40;;;;;;;66.30;43.25;;;2.20;99.90;;;;;;5013349;28;20484;-76
2022/01/08 08:45:08;;;;;;;65.85;43.38;;;2.20;99.90;;;;;;5013433;28;20025;-76
2022/01/08 08:47:35;;;;;;;73.07;45.42;;;2.20;99.90;;;;;;5013149;28;20057;-75
2022/01/08 08:50:03;;;;;;;68.00;47.17;;;2.10;99.90;;;;;;5012645;28;20048;-74
2022/01/08 08:52:29;;;;;;;64.32;44.25;;;2.00;99.90;;;;;;5006069;28;20476;-74
2022/01/08 08:54:56;;;;;;;71.55;46.30;;;2.10;99.90;;;;;;5011267;28;20105;-73
2022/01/08 08:57:21;;;;;;;64.13;47.85;;;2.10;99.90;;;;;;4996998;28;20046;-72
2022/01/08 08:59:48;;;;;;;81.50;53.50;;;2.10;99.90;;;;;;5009655;28;20032;-72
2022/01/08 09:02:14;;;;;;;83.22;51.47;;;2.10;99.90;;;;;;5008223;28;20174;-70
2022/01/08 09:04:41;;;;;;;71.22;45.78;;;2.00;99.90;;;;;;5000023;28;20105;-70
2022/01/08 09:07:08;;;;;;;53.88;34.75;;;2.10;99.90;;;;;;4994499;28;20104;-72
2022/01/08 09:09:34;;;;;;;52.28;34.42;;;2.00;99.90;;;;;;5012862;28;20096;-71
2022/01/08 09:12:00;;;;;;;48.78;33.63;;;1.90;99.90;;;;;;5012294;28;20053;-72
2022/01/08 09:14:26;;;;;;;49.13;32.33;;;1.90;99.90;;;;;;5012669;28;20033;-72
2022/01/08 09:16:57;;;;;;;50.90;34.45;;;1.90;99.90;;;;;;5012113;28;20163;-73
2022/01/08 09:19:23;;;;;;;47.03;33.45;;;1.80;99.90;;;;;;5011238;28;20029;-71
2022/01/08 09:21:50;;;;;;;49.10;33.13;;;1.80;99.90;;;;;;4995581;28;20045;-73
2022/01/08 09:24:20;;;;;;;43.08;29.23;;;1.90;99.90;;;;;;5013018;28;20239;-71
2022/01/08 09:26:48;;;;;;;41.83;28.08;;;1.80;99.90;;;;;;5012749;28;20669;-71
2022/01/08 09:29:17;;;;;;;39.92;26.95;;;1.90;99.90;;;;;;5012407;28;20046;-72
2022/01/08 09:31:43;;;;;;;40.13;26.85;;;1.90;99.90;;;;;;4993887;28;20045;-71
2022/01/08 09:34:10;;;;;;;40.33;28.05;;;1.90;99.90;;;;;;5012586;28;20033;-71
2022/01/08 09:36:38;;;;;;;41.30;27.10;;;1.90;99.90;;;;;;5012513;28;20108;-72
2022/01/08 09:39:06;;;;;;;38.83;26.80;;;1.90;99.90;;;;;;5012270;28;20037;-72
2022/01/08 09:41:32;;;;;;;44.05;27.65;;;1.90;99.90;;;;;;5012304;28;20042;-72
2022/01/08 09:43:58;;;;;;;40.30;27.45;;;1.80;99.90;;;;;;4994573;28;20022;-72
2022/01/08 09:46:31;;;;;;;40.72;26.23;;;1.90;99.90;;;;;;4988952;28;20107;-73
2022/01/08 09:48:57;;;;;;;46.70;29.52;;;1.90;99.90;;;;;;4999185;28;20033;-74
2022/01/08 09:51:22;;;;;;;43.47;29.45;;;1.90;99.90;;;;;;5005006;28;20626;-72
2022/01/08 09:53:49;;;;;;;45.13;29.30;;;1.90;99.90;;;;;;4999333;28;20026;-71
2022/01/08 09:56:18;;;;;;;46.03;29.63;;;1.90;99.90;;;;;;4994491;28;20054;-73
2022/01/08 09:58:44;;;;;;;42.88;28.23;;;1.90;99.90;;;;;;5007966;28;20078;-72
2022/01/08 10:01:29;;;;;;;42.50;26.48;;;2.00;99.90;;;;;;4992042;28;20034;-71
2022/01/08 10:03:56;;;;;;;40.15;26.55;;;1.90;99.90;;;;;;5004591;28;20408;-72
2022/01/08 10:06:24;;;;;;;41.50;26.13;;;1.80;99.90;;;;;;5012376;28;20026;-72
2022/01/08 10:08:51;;;;;;;42.05;28.35;;;1.80;99.90;;;;;;5011674;28;20464;-71
2022/01/08 10:11:19;;;;;;;45.58;28.58;;;1.90;99.90;;;;;;5011976;28;20030;-71
2022/01/08 10:13:47;;;;;;;45.63;27.88;;;1.90;99.90;;;;;;5011983;28;20535;-72
2022/01/08 10:19:02;;;;;;;47.10;29.80;;;1.90;99.90;;;;;;5010471;28;20469;-71
2022/01/08 10:21:34;;;;;;;52.42;31.33;;;2.00;99.90;;;;;;5011041;28;20100;-73
2022/01/08 10:24:08;;;;;;;52.92;32.85;;;1.80;99.90;;;;;;5005932;28;20077;-72
2022/01/08 10:26:40;;;;;;;56.47;35.80;;;2.00;99.90;;;;;;5007142;28;20057;-71
2022/01/08 10:29:12;;;;;;;60.20;33.65;;;2.10;99.90;;;;;;5011045;28;20220;-72
2022/01/08 10:31:41;;;;;;;51.42;32.65;;;2.00;99.90;;;;;;5007984;28;20079;-73
2022/01/08 10:34:09;;;;;;;52.97;36.13;;;1.90;99.90;;;;;;5011637;28;20030;-72
2022/01/08 10:36:37;;;;;;;59.63;39.38;;;1.90;99.90;;;;;;5010719;28;20037;-73
2022/01/08 10:39:06;;;;;;;57.85;39.17;;;1.90;99.90;;;;;;4998337;28;20491;-73
2022/01/08 10:41:37;;;;;;;57.70;40.47;;;1.90;99.90;;;;;;4992774;28;20406;-76
2022/01/08 10:44:09;;;;;;;55.53;39.25;;;1.90;99.90;;;;;;5011005;28;20037;-73
2022/01/08 10:46:36;;;;;;;65.70;42.57;;;2.00;99.90;;;;;;5011585;28;20026;-74
2022/01/08 10:49:03;;;;;;;65.70;42.92;;;2.00;99.90;;;;;;5003401;28;20177;-73
2022/01/08 10:51:40;;;;;;;64.75;40.30;;;2.00;99.90;;;;;;4991592;28;20069;-75
2022/01/08 10:54:08;;;;;;;63.88;37.75;;;2.00;99.90;;;;;;4977698;28;20030;-74
2022/01/08 10:56:39;;;;;;;58.08;37.67;;;1.90;99.90;;;;;;5006274;28;20492;-73
2022/01/08 10:59:13;;;;;;;57.38;37.33;;;1.90;99.90;;;;;;4991513;28;20050;-72
2022/01/08 11:01:50;;;;;;;59.28;37.22;;;2.00;99.90;;;;;;4998048;28;20026;-72
2022/01/08 11:04:30;;;;;;;59.83;40.25;;;2.10;99.90;;;;;;5010858;28;20022;-73
2022/01/08 11:06:59;;;;;;;61.85;38.03;;;2.30;99.90;;;;;;5010452;28;20601;-74
2022/01/08 11:09:26;;;;;;;58.67;37.28;;;2.20;99.90;;;;;;5003314;28;20041;-75
2022/01/08 11:11:53;;;;;;;60.38;38.53;;;2.20;99.90;;;;;;5010939;28;20037;-72
2022/01/08 11:14:47;;;;;;;62.30;38.25;;;2.10;99.90;;;;;;4990907;28;20429;-76
2022/01/08 11:17:20;;;;;;;68.72;39.85;;;2.10;99.90;;;;;;5002467;28;20069;-74
2022/01/08 11:19:50;;;;;;;60.25;38.72;;;2.10;99.90;;;;;;4986644;28;20413;-74
2022/01/08 11:22:21;;;;;;;60.83;39.88;;;2.10;99.90;;;;;;4997038;28;20416;-74
2022/01/08 11:25:12;;;;;;;55.20;37.97;;;2.10;99.90;;;;;;4991936;28;20524;-74
2022/01/08 11:27:46;;;;;;;52.13;34.45;;;2.10;99.90;;;;;;5006468;28;20033;-74
2022/01/08 11:30:19;;;;;;;56.00;35.80;;;2.10;99.90;;;;;;5004200;28;20019;-73
2022/01/08 11:32:46;;;;;;;;;;;2.20;99.90;;;;;;5002490;28;20384;-72
2022/01/08 11:35:13;;;;;;;64.57;40.78;;;2.10;99.90;;;;;;5011911;28;20364;-72
2022/01/08 11:37:46;;;;;;;63.00;41.83;;;2.20;99.90;;;;;;5005986;28;20338;-72
2022/01/08 11:40:15;;;;;;;69.68;45.08;;;2.10;99.90;;;;;;5002970;28;20449;-75
2022/01/08 11:42:41;;;;;;;69.22;46.75;;;2.20;99.90;;;;;;5011160;28;20045;-74
2022/01/08 11:45:11;;;;;;;65.15;43.78;;;2.30;99.90;;;;;;5008477;28;20036;-72
2022/01/08 11:47:42;;;;;;;71.28;43.63;;;2.40;99.90;;;;;;4999734;28;20153;-72
2022/01/08 11:50:10;;;;;;;64.43;43.40;;;2.30;99.90;;;;;;5027744;28;20127;-73
2022/01/08 11:52:36;;;;;;;72.45;44.60;;;2.30;99.90;;;;;;5021472;28;20014;-74
2022/01/08 11:55:02;;;;;;;54.00;34.35;;;2.30;99.90;;;;;;5034562;28;20816;-70
2022/01/08 11:57:30;;;;;;;50.00;34.47;;;2.20;99.90;;;;;;5021814;28;20049;-74
2022/01/08 12:00:01;;;;;;;51.78;32.55;;;2.10;99.90;;;;;;5010654;28;20050;-70
2022/01/08 12:02:44;;;;;;;52.65;35.13;;;2.10;99.90;;;;;;5013931;28;20081;-75
2022/01/08 12:05:12;;;;;;;53.95;34.72;;;2.20;99.90;;;;;;5003369;28;20033;-71
2022/01/08 12:07:41;;;;;;;52.40;34.10;;;2.10;99.90;;;;;;5010342;28;20026;-73
2022/01/08 12:10:13;;;;;;;63.25;40.67;;;2.20;99.90;;;;;;5017429;28;20041;-74
2022/01/08 12:12:45;;;;;;;67.18;45.83;;;2.20;99.90;;;;;;4985347;28;20052;-74
2022/01/08 12:15:12;;;;;;;73.20;48.28;;;2.20;99.90;;;;;;4994969;28;20380;-75
2022/01/08 12:17:55;;;;;;;72.82;47.15;;;2.20;99.90;;;;;;5012877;28;20450;-75
2022/01/08 12:20:45;;;;;;;78.55;48.08;;;2.10;99.90;;;;;;5013108;28;20030;-74
2022/01/08 12:23:25;;;;;;;67.47;41.80;;;2.10;99.90;;;;;;4990379;28;20037;-76
2022/01/08 12:25:51;;;;;;;58.55;34.88;;;2.00;99.90;;;;;;5009092;28;20557;-76
2022/01/08 12:28:56;;;;;;;59.20;38.78;;;2.00;99.90;;;;;;5014006;28;20044;-73
2022/01/08 12:31:29;;;;;;;60.15;38.08;;;2.00;99.90;;;;;;4994657;28;20553;-69
2022/01/08 12:34:17;;;;;;;80.05;48.08;;;2.10;99.90;;;;;;4998037;28;20033;-75
2022/01/08 12:36:55;;;;;;;105.38;65.70;;;2.00;99.90;;;;;;5007329;28;20028;-72
2022/01/08 12:39:40;;;;;;;114.97;71.20;;;2.20;99.90;;;;;;5009258;28;20037;-71
2022/01/08 12:42:24;;;;;;;151.90;86.28;;;2.20;99.90;;;;;;5004677;28;20404;-71
2022/01/08 12:45:19;;;;;;;188.57;107.10;;;2.30;99.90;;;;;;5005987;28;20037;-70
2022/01/08 12:48:09;;;;;;;145.98;91.32;;;2.20;99.90;;;;;;4999329;28;20404;-72
2022/01/08 12:50:44;;;;;;;53.70;33.90;;;2.20;99.90;;;;;;4992547;28;20125;-71
2022/01/08 12:53:14;;;;;;;58.63;39.10;;;2.10;99.90;;;;;;5001585;28;20068;-71
2022/01/08 12:55:55;;;;;;;49.08;31.77;;;2.00;99.90;;;;;;5001137;28;20061;-70
2022/01/08 12:58:31;;;;;;;52.58;32.28;;;1.80;99.90;;;;;;5006668;28;20072;-71
2022/01/08 13:01:12;;;;;;;53.63;33.30;;;1.90;99.90;;;;;;5008223;28;20033;-70
2022/01/08 13:03:42;;;;;;;83.95;54.58;;;1.90;99.90;;;;;;5008506;28;20045;-72
2022/01/08 13:06:14;;;;;;;116.97;74.13;;;1.90;99.90;;;;;;5001731;28;20045;-70
2022/01/08 13:08:53;;;;;;;88.13;56.10;;;1.90;99.90;;;;;;5009800;28;20115;-71
2022/01/08 13:11:28;;;;;;;77.25;52.97;;;2.00;99.90;;;;;;5012908;28;20423;-70